createdAt,value
2018-04-25T00:01:50.825Z,4.20
2018-04-25T00:04:18.470Z,5.10
2018-04-25T00:06:46.178Z,5.30
2018-04-25T00:09:14.037Z,5.17
2018-04-25T00:11:41.685Z,4.50
2018-04-25T00:14:09.388Z,4.87
2018-04-25T00:16:37.066Z,5.13
2018-04-25T00:19:05.476Z,5.00
2018-04-25T00:21:33.176Z,4.67
2018-04-25T00:24:00.836Z,5.00
2018-04-25T00:26:28.469Z,5.30
2018-04-25T00:28:56.458Z,5.30
2018-04-25T00:31:24.596Z,5.07
2018-04-25T00:33:52.228Z,5.53
2018-04-25T00:36:20.688Z,4.80
2018-04-25T00:38:48.534Z,4.87
2018-04-25T00:41:16.401Z,5.60
2018-04-25T00:43:44.349Z,5.80
2018-04-25T00:46:12.008Z,5.10
2018-04-25T00:48:39.658Z,5.13
2018-04-25T00:51:07.562Z,5.17
2018-04-25T00:53:35.257Z,5.37
2018-04-25T00:56:02.902Z,5.47
2018-04-25T00:58:30.596Z,5.10
2018-04-25T01:00:59.232Z,5.90
2018-04-25T01:03:26.893Z,6.20
2018-04-25T01:05:54.604Z,5.80
2018-04-25T01:08:23.017Z,5.30
2018-04-25T01:10:50.704Z,5.13
2018-04-25T01:13:18.422Z,5.20
2018-04-25T01:15:46.222Z,5.73
2018-04-25T01:18:14.084Z,5.57
2018-04-25T01:20:41.789Z,5.77
2018-04-25T01:23:10.258Z,6.10
2018-04-25T01:25:40.658Z,5.90
2018-04-25T01:28:09.445Z,6.73
2018-04-25T01:30:52.681Z,5.60
2018-04-25T01:33:23.709Z,5.73
2018-04-25T01:35:58.367Z,5.43
2018-04-25T01:38:27.839Z,5.43
2018-04-25T01:40:55.713Z,5.70
2018-04-25T01:43:23.575Z,5.73
2018-04-25T01:46:09.818Z,5.20
2018-04-25T01:51:57.912Z,5.13
2018-04-25T01:54:37.675Z,5.30
2018-04-25T01:57:17.222Z,5.17
2018-04-25T01:59:56.729Z,5.57
2018-04-25T02:02:24.093Z,5.50
2018-04-25T02:04:51.725Z,5.57
2018-04-25T02:07:20.129Z,5.40
2018-04-25T02:09:48.024Z,5.07
2018-04-25T02:12:15.697Z,5.43
2018-04-25T02:14:43.550Z,5.07
2018-04-25T02:17:11.621Z,5.37
2018-04-25T02:19:39.266Z,5.20
2018-04-25T02:22:06.915Z,5.10
2018-04-25T02:24:34.600Z,4.90
2018-04-25T02:27:02.233Z,5.27
2018-04-25T02:29:30.025Z,4.60
2018-04-25T02:31:57.720Z,4.53
2018-04-25T02:34:25.355Z,4.40
2018-04-25T02:36:52.989Z,5.10
2018-04-25T02:39:21.081Z,5.13
2018-04-25T02:41:48.955Z,5.17
2018-04-25T02:44:16.596Z,5.03
2018-04-25T02:46:44.460Z,4.70
2018-04-25T02:49:12.096Z,4.30
2018-04-25T02:51:40.501Z,4.57
2018-04-25T02:54:08.372Z,4.40
2018-04-25T02:56:36.006Z,4.50
2018-04-25T02:59:03.645Z,4.70
2018-04-25T03:01:31.376Z,5.17
2018-04-25T03:03:59.239Z,5.03
2018-04-25T03:06:26.885Z,5.97
2018-04-25T03:08:54.649Z,7.63
2018-04-25T03:11:22.284Z,6.77
2018-04-25T03:13:50.085Z,6.67
2018-04-25T03:16:17.788Z,6.27
2018-04-25T03:18:46.222Z,7.40
2018-04-25T03:21:13.911Z,7.67
2018-04-25T03:23:41.845Z,7.67
2018-04-25T03:26:09.485Z,6.83
2018-04-25T03:28:37.284Z,7.17
2018-04-25T03:31:05.151Z,6.10
2018-04-25T03:33:32.922Z,6.23
2018-04-25T03:36:00.785Z,6.90
2018-04-25T03:38:28.477Z,6.93
2018-04-25T03:40:56.108Z,7.03
2018-04-25T03:43:23.978Z,7.53
2018-04-25T03:45:51.921Z,7.13
2018-04-25T03:50:50.649Z,7.47
2018-04-25T03:53:18.697Z,8.70
2018-04-25T03:55:46.486Z,8.77
2018-04-25T03:58:14.138Z,7.80
2018-04-25T04:00:41.997Z,8.03
2018-04-25T04:03:09.776Z,7.43
2018-04-25T04:05:37.430Z,7.43
2018-04-25T04:08:05.304Z,6.60
2018-04-25T04:10:32.960Z,6.50
2018-04-25T04:13:00.652Z,6.37
2018-04-25T04:15:28.469Z,6.20
2018-04-25T04:17:56.100Z,6.67
2018-04-25T04:20:24.515Z,6.67
2018-04-25T04:22:52.372Z,7.73
2018-04-25T04:25:20.009Z,8.50
2018-04-25T04:27:48.414Z,9.17
2018-04-25T04:30:16.484Z,7.63
2018-04-25T04:32:44.184Z,6.77
2018-04-25T04:35:12.040Z,6.10
2018-04-25T04:37:40.045Z,7.33
2018-04-25T04:40:08.445Z,5.40
2018-04-25T04:42:37.073Z,5.30
2018-04-25T04:45:05.281Z,4.93
2018-04-25T04:47:33.831Z,4.93
2018-04-25T04:50:01.694Z,5.37
2018-04-25T04:52:29.654Z,5.87
2018-04-25T04:54:57.290Z,5.57
2018-04-25T04:57:25.084Z,5.43
2018-04-25T04:59:52.936Z,6.17
2018-04-25T05:02:20.568Z,5.63
2018-04-25T05:04:48.981Z,6.37
2018-04-25T05:07:16.843Z,5.73
2018-04-25T05:09:44.628Z,6.90
2018-04-25T05:12:12.272Z,5.93
2018-04-25T05:14:40.464Z,6.03
2018-04-25T05:17:08.113Z,6.00
2018-04-25T05:19:35.882Z,6.60
2018-04-25T05:22:03.734Z,6.03
2018-04-25T05:24:31.541Z,7.17
2018-04-25T05:26:59.977Z,7.33
2018-04-25T05:29:27.840Z,8.40
2018-04-25T05:31:55.554Z,8.70
2018-04-25T05:34:23.292Z,7.90
2018-04-25T05:36:51.362Z,7.73
2018-04-25T05:39:19.029Z,7.30
2018-04-25T05:41:46.890Z,6.73
2018-04-25T05:44:14.690Z,6.10
2018-04-25T05:46:43.109Z,6.20
2018-04-25T05:49:10.805Z,5.87
2018-04-25T05:51:38.894Z,6.57
2018-04-25T05:54:06.523Z,6.40
2018-04-25T05:56:34.206Z,6.73
2018-04-25T05:59:02.257Z,6.13
2018-04-25T06:01:30.548Z,6.20
2018-04-25T06:03:58.185Z,6.27
2018-04-25T06:06:25.940Z,6.50
2018-04-25T06:08:53.572Z,6.03
2018-04-25T06:11:21.987Z,5.40
2018-04-25T06:13:49.948Z,4.63
2018-04-25T06:16:17.609Z,4.80
2018-04-25T06:18:45.241Z,5.03
2018-04-25T06:21:13.696Z,5.63
2018-04-25T06:23:41.336Z,5.10
2018-04-25T06:26:09.002Z,5.07
2018-04-25T06:28:36.687Z,5.00
2018-04-25T06:31:06.066Z,5.33
2018-04-25T06:33:33.709Z,5.20
2018-04-25T06:36:01.414Z,5.40
2018-04-25T06:38:29.150Z,5.30
2018-04-25T06:40:56.784Z,5.27
2018-04-25T06:43:24.578Z,5.43
2018-04-25T06:45:52.442Z,5.27
2018-04-25T06:48:20.084Z,5.20
2018-04-25T06:50:48.645Z,5.57
2018-04-25T06:53:17.041Z,4.80
2018-04-25T06:55:44.676Z,5.13
2018-04-25T06:58:13.289Z,5.77
2018-04-25T07:00:40.916Z,4.90
2018-04-25T07:03:09.321Z,4.80
2018-04-25T07:05:37.205Z,5.17
2018-04-25T07:08:05.141Z,4.70
2018-04-25T07:10:34.788Z,4.33
2018-04-25T07:13:02.859Z,3.93
2018-04-25T07:15:30.734Z,4.60
2018-04-25T07:17:58.386Z,4.30
2018-04-25T07:20:26.652Z,4.53
2018-04-25T07:22:54.530Z,4.57
2018-04-25T07:25:22.405Z,4.57
2018-04-25T07:27:50.268Z,4.20
2018-04-25T07:30:17.911Z,4.63
2018-04-25T07:32:45.577Z,5.27
2018-04-25T07:35:13.360Z,7.40
2018-04-25T07:37:41.224Z,4.60
2018-04-25T07:40:08.891Z,10.00
2018-04-25T07:42:36.716Z,4.00
2018-04-25T07:45:05.121Z,4.10
2018-04-25T07:47:32.895Z,3.77
2018-04-25T07:50:00.737Z,4.27
2018-04-25T07:52:28.525Z,4.37
2018-04-25T07:54:56.386Z,3.93
2018-04-25T07:57:24.088Z,3.97
2018-04-25T07:59:51.725Z,3.50
2018-04-25T08:02:19.578Z,3.67
2018-04-25T08:04:48.192Z,4.13
2018-04-25T08:07:15.827Z,3.70
2018-04-25T08:09:44.225Z,4.03
2018-04-25T08:12:23.733Z,4.47
2018-04-25T08:15:03.441Z,4.37
2018-04-25T08:17:43.160Z,4.40
2018-04-25T08:20:22.648Z,3.80
2018-04-25T08:22:50.439Z,3.23
2018-04-25T08:25:18.845Z,3.57
2018-04-25T08:27:46.472Z,4.20
2018-04-25T08:30:15.115Z,3.43
2018-04-25T08:32:43.528Z,3.67
2018-04-25T08:35:11.169Z,3.50
2018-04-25T08:37:39.157Z,3.30
2018-04-25T08:40:07.808Z,3.60
2018-04-25T08:42:35.457Z,2.60
2018-04-25T08:45:03.843Z,3.00
2018-04-25T08:47:31.616Z,2.87
2018-04-25T08:49:59.273Z,2.90
2018-04-25T08:52:26.948Z,2.90
2018-04-25T08:54:54.819Z,3.33
2018-04-25T08:57:22.458Z,3.30
2018-04-25T08:59:50.148Z,3.27
2018-04-25T09:02:17.992Z,3.10
2018-04-25T09:04:46.265Z,3.57
2018-04-25T09:07:14.345Z,3.42
2018-04-25T09:09:42.788Z,3.00
2018-04-25T09:12:10.587Z,3.00
2018-04-25T09:14:39.269Z,3.47
2018-04-25T09:17:07.132Z,3.63
2018-04-25T09:19:34.804Z,3.60
2018-04-25T09:22:02.750Z,3.37
2018-04-25T09:24:30.413Z,3.08
2018-04-25T09:26:58.299Z,3.20
2018-04-25T09:29:26.774Z,3.17
2018-04-25T09:31:54.637Z,3.35
2018-04-25T09:34:22.512Z,3.80
2018-04-25T09:36:50.236Z,3.37
2018-04-25T09:39:17.897Z,3.58
2018-04-25T09:41:45.556Z,3.28
2018-04-25T09:44:13.669Z,4.05
2018-04-25T09:46:42.853Z,3.85
2018-04-25T09:49:10.731Z,3.10
2018-04-25T09:51:38.441Z,3.00
2018-04-25T09:54:06.259Z,3.05
2018-04-25T09:56:33.968Z,3.08
2018-04-25T09:59:01.685Z,3.25
2018-04-25T10:01:31.277Z,3.25
2018-04-25T10:03:59.164Z,3.17
2018-04-25T10:06:28.399Z,2.97
2018-04-25T10:08:56.056Z,3.05
2018-04-25T10:11:24.485Z,3.45
2018-04-25T10:13:52.579Z,3.72
2018-04-25T10:16:20.437Z,3.80
2018-04-25T10:18:48.100Z,3.90
2018-04-25T10:21:15.952Z,3.83
2018-04-25T10:23:43.603Z,3.90
2018-04-25T10:26:11.493Z,3.85
2018-04-25T10:28:39.449Z,5.43
2018-04-25T10:31:07.328Z,3.90
2018-04-25T10:33:35.190Z,3.15
2018-04-25T10:36:03.164Z,3.20
2018-04-25T10:38:30.833Z,3.17
2018-04-25T10:40:58.505Z,3.50
2018-04-25T10:43:26.205Z,3.10
2018-04-25T10:45:53.860Z,2.95
2018-04-25T10:48:21.516Z,3.00
2018-04-25T10:50:49.248Z,3.05
2018-04-25T10:53:16.905Z,2.97
2018-04-25T10:55:44.569Z,2.97
2018-04-25T10:58:12.505Z,2.87
2018-04-25T11:00:40.398Z,3.03
2018-04-25T11:03:08.261Z,3.17
2018-04-25T11:05:35.976Z,3.03
2018-04-25T11:08:03.646Z,4.22
2018-04-25T11:10:31.455Z,3.97
2018-04-25T11:12:59.503Z,3.20
2018-04-25T11:15:27.324Z,3.00
2018-04-25T11:17:54.988Z,2.62
2018-04-25T11:20:23.869Z,2.90
2018-04-25T11:22:52.268Z,3.20
2018-04-25T11:25:19.920Z,3.30
2018-04-25T11:27:47.841Z,3.60
2018-04-25T11:30:15.508Z,3.30
2018-04-25T11:32:43.148Z,3.60
2018-04-25T11:35:11.012Z,3.60
2018-04-25T11:37:38.805Z,3.60
2018-04-25T11:40:06.472Z,3.60
2018-04-25T11:42:34.189Z,3.85
2018-04-25T11:45:02.091Z,3.62
2018-04-25T11:47:29.765Z,4.05
2018-04-25T11:49:57.498Z,4.18
2018-04-25T11:52:25.164Z,3.08
2018-04-25T11:54:53.046Z,3.03
2018-04-25T11:57:21.713Z,3.17
2018-04-25T11:59:49.596Z,3.25
2018-04-25T12:02:18.033Z,3.58
2018-04-25T12:04:45.925Z,3.35
2018-04-25T12:07:13.581Z,2.95
2018-04-25T12:09:41.241Z,3.47
2018-04-25T12:12:08.955Z,3.20
2018-04-25T12:14:37.389Z,3.78
2018-04-25T12:17:05.060Z,3.37
2018-04-25T12:19:33.036Z,4.53
2018-04-25T12:22:00.908Z,2.90
2018-04-25T12:24:28.557Z,3.70
2018-04-25T12:26:56.272Z,3.50
2018-04-25T12:29:23.932Z,3.40
2018-04-25T12:31:52.469Z,3.33
2018-04-25T12:34:20.321Z,3.63
2018-04-25T12:36:48.108Z,3.13
2018-04-25T12:39:15.773Z,3.70
2018-04-25T12:41:43.723Z,3.60
2018-04-25T12:44:12.101Z,3.37
2018-04-25T12:46:39.736Z,3.80
2018-04-25T12:49:08.562Z,4.47
2018-04-25T12:51:36.261Z,3.90
2018-04-25T12:54:04.693Z,4.23
2018-04-25T12:56:33.524Z,4.20
2018-04-25T12:59:01.362Z,4.30
2018-04-25T13:01:29.227Z,4.53
2018-04-25T13:03:57.088Z,3.87
2018-04-25T13:06:24.729Z,3.97
2018-04-25T13:08:52.520Z,4.00
2018-04-25T13:11:20.380Z,3.43
2018-04-25T13:13:48.255Z,3.83
2018-04-25T13:16:16.116Z,3.70
2018-04-25T13:18:43.829Z,3.50
2018-04-25T13:21:12.231Z,3.70
2018-04-25T13:23:39.869Z,3.73
2018-04-25T13:26:08.547Z,3.60
2018-04-25T13:28:36.149Z,3.77
2018-04-25T13:31:03.929Z,3.93
2018-04-25T13:33:31.624Z,3.50
2018-04-25T13:35:59.260Z,4.40
2018-04-25T13:38:26.920Z,4.10
2018-04-25T13:40:55.369Z,3.83
2018-04-25T13:43:23.154Z,3.97
2018-04-25T13:45:50.801Z,4.00
2018-04-25T13:48:18.477Z,4.10
2018-04-25T13:50:46.348Z,4.60
2018-04-25T13:53:14.209Z,4.03
2018-04-25T13:55:42.260Z,4.00
2018-04-25T13:58:09.897Z,4.30
2018-04-25T14:00:38.294Z,4.00
2018-04-25T14:03:06.605Z,4.33
2018-04-25T14:05:34.468Z,3.90
2018-04-25T14:08:02.114Z,3.90
2018-04-25T14:10:29.979Z,3.93
2018-04-25T14:12:57.624Z,4.20
2018-04-25T14:15:25.261Z,4.53
2018-04-25T14:17:54.088Z,5.33
2018-04-25T14:20:21.811Z,4.70
2018-04-25T14:22:50.277Z,4.87
2018-04-25T14:25:18.906Z,5.27
2018-04-25T14:27:46.769Z,5.20
2018-04-25T14:30:14.519Z,4.77
2018-04-25T14:32:42.929Z,6.63
2018-04-25T14:35:10.584Z,5.80
2018-04-25T14:37:38.220Z,4.63
2018-04-25T14:40:06.042Z,4.20
2018-04-25T14:42:34.453Z,4.27
2018-04-25T14:45:02.900Z,4.30
2018-04-25T14:47:31.525Z,4.97
2018-04-25T14:49:59.311Z,4.70
2018-04-25T14:52:27.174Z,4.90
2018-04-25T14:54:54.945Z,4.50
2018-04-25T14:57:22.585Z,4.27
2018-04-25T14:59:50.367Z,4.27
2018-04-25T15:02:18.308Z,3.60
2018-04-25T15:04:45.946Z,5.07
2018-04-25T15:07:14.357Z,5.03
2018-04-25T15:09:42.444Z,4.53
2018-04-25T15:12:10.089Z,4.87
2018-04-25T15:14:38.487Z,6.40
2018-04-25T15:17:06.432Z,4.90
2018-04-25T15:19:34.069Z,4.17
2018-04-25T15:22:02.590Z,3.77
2018-04-25T15:24:30.360Z,3.57
2018-04-25T15:26:58.009Z,4.20
2018-04-25T15:29:25.699Z,4.20
2018-04-25T15:31:53.428Z,3.97
2018-04-25T15:34:21.064Z,5.67
2018-04-25T15:36:49.465Z,3.93
2018-04-25T15:39:17.226Z,4.30
2018-04-25T15:41:44.876Z,4.67
2018-04-25T15:44:12.510Z,4.47
2018-04-25T15:46:40.242Z,3.77
2018-04-25T15:49:07.852Z,4.30
2018-04-25T15:51:36.249Z,3.70
2018-04-25T15:54:04.371Z,3.97
2018-04-25T15:56:32.060Z,4.07
2018-04-25T15:59:00.477Z,4.07
2018-04-25T16:01:28.161Z,4.50
2018-04-25T16:03:55.806Z,3.80
2018-04-25T16:06:23.442Z,7.83
2018-04-25T16:08:51.136Z,6.77
2018-04-25T16:11:18.773Z,6.87
2018-04-25T16:13:46.477Z,4.63
2018-04-25T16:16:14.564Z,4.23
2018-04-25T16:18:42.977Z,4.20
2018-04-25T16:21:11.041Z,4.27
2018-04-25T16:23:39.484Z,4.33
2018-04-25T16:26:07.125Z,4.90
2018-04-25T16:28:34.891Z,4.70
2018-04-25T16:31:02.749Z,5.70
2018-04-25T16:33:30.405Z,4.43
2018-04-25T16:35:58.114Z,5.97
2018-04-25T16:38:27.085Z,5.03
2018-04-25T16:40:54.741Z,20.30
2018-04-25T16:43:22.396Z,5.97
2018-04-25T16:45:50.089Z,6.97
2018-04-25T16:48:17.785Z,7.60
2018-04-25T16:50:45.516Z,10.60
2018-04-25T16:53:14.270Z,8.40
2018-04-25T16:55:41.912Z,6.13
2018-04-25T16:58:09.564Z,6.70
2018-04-25T17:00:37.253Z,5.20
2018-04-25T17:03:04.907Z,5.03
2018-04-25T17:05:32.558Z,4.97
2018-04-25T17:08:00.345Z,5.60
2018-04-25T17:10:27.985Z,6.00
2018-04-25T17:12:55.629Z,6.20
2018-04-25T17:15:23.368Z,5.83
2018-04-25T17:17:51.780Z,4.97
2018-04-25T17:20:19.420Z,5.23
2018-04-25T17:22:48.038Z,4.90
2018-04-25T17:25:15.735Z,5.53
2018-04-25T17:27:43.373Z,5.33
2018-04-25T17:30:11.064Z,6.23
2018-04-25T17:32:38.799Z,5.07
2018-04-25T17:35:06.438Z,5.13
2018-04-25T17:37:34.174Z,5.23
2018-04-25T17:40:01.937Z,5.87
2018-04-25T17:42:30.341Z,5.73
2018-04-25T17:44:58.409Z,4.70
2018-04-25T17:47:26.046Z,5.50
2018-04-25T17:49:54.533Z,5.17
2018-04-25T17:52:22.329Z,5.37
2018-04-25T17:54:50.017Z,5.23
2018-04-25T17:57:17.667Z,5.10
2018-04-25T17:59:45.417Z,5.20
2018-04-25T18:02:13.067Z,5.13
2018-04-25T18:04:40.773Z,5.67
2018-04-25T18:07:08.860Z,6.50
2018-04-25T18:09:37.332Z,5.73
2018-04-25T18:12:04.988Z,6.33
2018-04-25T18:14:32.695Z,6.60
2018-04-25T18:17:00.468Z,5.30
2018-04-25T18:19:28.852Z,5.43
2018-04-25T18:21:56.593Z,6.97
2018-04-25T18:24:24.292Z,6.60
2018-04-25T18:26:51.954Z,6.47
2018-04-25T18:29:19.740Z,5.90
2018-04-25T18:31:47.384Z,6.40
2018-04-25T18:34:15.017Z,5.97
2018-04-25T18:36:42.705Z,5.80
2018-04-25T18:39:10.431Z,4.90
2018-04-25T18:41:38.078Z,5.73
2018-04-25T18:44:06.896Z,5.70
2018-04-25T18:46:34.586Z,5.10
2018-04-25T18:49:02.298Z,6.40
2018-04-25T18:51:30.965Z,6.40
2018-04-25T18:53:59.376Z,5.90
2018-04-25T18:56:27.017Z,7.57
2018-04-25T18:58:55.561Z,7.70
2018-04-25T19:01:24.011Z,7.40
2018-04-25T19:03:51.657Z,8.23
2018-04-25T19:06:19.492Z,7.90
2018-04-25T19:08:47.144Z,8.00
2018-04-25T19:11:14.849Z,8.63
2018-04-25T19:13:42.940Z,8.57
2018-04-25T19:16:10.572Z,8.30
2018-04-25T19:18:38.981Z,8.77
2018-04-25T19:21:06.668Z,8.77
2018-04-25T19:23:34.368Z,8.80
2018-04-25T19:26:02.834Z,8.80
2018-04-25T19:28:30.970Z,8.90
2018-04-25T19:30:58.674Z,9.40
2018-04-25T19:33:27.093Z,9.10
2018-04-25T19:35:54.780Z,8.60
2018-04-25T19:38:22.441Z,10.90
2018-04-25T19:40:50.905Z,11.10
2018-04-25T19:43:18.750Z,11.70
2018-04-25T19:45:46.405Z,11.93
2018-04-25T19:48:14.872Z,11.47
2018-04-25T19:50:43.553Z,10.73
2018-04-25T19:53:11.973Z,11.53
2018-04-25T19:55:39.612Z,10.50
2018-04-25T19:58:08.072Z,10.77
2018-04-25T20:00:36.485Z,10.97
2018-04-25T20:03:04.133Z,10.93
2018-04-25T20:05:32.797Z,11.80
2018-04-25T20:08:01.213Z,10.93
2018-04-25T20:10:28.853Z,10.80
2018-04-25T20:12:57.465Z,10.80
2018-04-25T20:15:25.113Z,10.13
2018-04-25T20:17:52.815Z,11.73
2018-04-25T20:20:20.513Z,10.30
2018-04-25T20:22:48.939Z,10.73
2018-04-25T20:25:16.589Z,11.03
2018-04-25T20:27:44.717Z,10.40
2018-04-25T20:30:13.201Z,10.93
2018-04-25T20:32:41.617Z,11.87
2018-04-25T20:35:09.320Z,11.20
2018-04-25T20:37:36.973Z,10.43
2018-04-25T20:40:04.649Z,11.23
2018-04-25T20:42:32.582Z,11.73
2018-04-25T20:45:00.218Z,13.73
2018-04-25T20:47:27.860Z,13.50
2018-04-25T20:49:56.321Z,12.60
2018-04-25T20:52:24.021Z,11.60
2018-04-25T20:54:51.667Z,10.57
2018-04-25T20:57:19.672Z,9.63
2018-04-25T20:59:47.319Z,10.03
2018-04-25T21:02:14.980Z,9.60
2018-04-25T21:04:42.700Z,9.03
2018-04-25T21:07:10.393Z,9.93
2018-04-25T21:09:38.090Z,9.70
2018-04-25T21:12:05.935Z,9.33
2018-04-25T21:14:33.585Z,10.13
2018-04-25T21:17:01.996Z,10.43
2018-04-25T21:19:29.687Z,10.37
2018-04-25T21:21:57.338Z,10.30
2018-04-25T21:24:25.050Z,10.50
2018-04-25T21:26:52.809Z,10.37
2018-04-25T21:29:21.277Z,10.97
2018-04-25T21:31:49.699Z,11.93
2018-04-25T21:34:17.483Z,10.70
2018-04-25T21:36:45.176Z,10.67
2018-04-25T21:39:12.828Z,10.20
2018-04-25T21:41:40.525Z,10.13
2018-04-25T21:44:08.931Z,9.43
2018-04-25T21:46:36.621Z,9.47
2018-04-25T21:49:04.557Z,9.73
2018-04-25T21:51:32.201Z,9.70
2018-04-25T21:54:00.604Z,9.93
2018-04-25T21:56:28.672Z,9.87
2018-04-25T21:58:56.313Z,10.60
2018-04-25T22:01:24.774Z,10.33
2018-04-25T22:03:53.457Z,10.17
2018-04-25T22:06:21.873Z,10.93
2018-04-25T22:08:49.512Z,11.53
2018-04-25T22:11:18.236Z,11.30
2018-04-25T22:13:45.954Z,10.93
2018-04-25T22:16:14.421Z,10.90
2018-04-25T22:18:42.393Z,10.53
2018-04-25T22:21:10.089Z,10.77
2018-04-25T22:23:37.786Z,9.47
2018-04-25T22:26:05.833Z,10.20
2018-04-25T22:28:33.464Z,10.23
2018-04-25T22:31:01.874Z,9.87
2018-04-25T22:33:29.896Z,10.40
2018-04-25T22:35:57.833Z,10.40
2018-04-25T22:38:25.481Z,10.83
2018-04-25T22:40:53.364Z,9.73
2018-04-25T22:43:21.036Z,10.33
2018-04-25T22:45:48.887Z,8.60
2018-04-25T22:48:16.733Z,8.83
2018-04-25T22:50:44.421Z,8.50
2018-04-25T22:53:12.081Z,8.43
2018-04-25T22:55:39.767Z,8.57
2018-04-25T22:58:07.408Z,9.40
2018-04-25T23:00:35.200Z,9.00
2018-04-25T23:03:04.428Z,8.93
2018-04-25T23:05:32.229Z,8.87
2018-04-25T23:08:00.182Z,10.00
2018-04-25T23:10:27.965Z,10.17
2018-04-25T23:12:55.618Z,10.07
2018-04-25T23:15:23.493Z,10.20
2018-04-25T23:17:51.193Z,10.03
2018-04-25T23:20:18.833Z,10.17
2018-04-25T23:22:46.481Z,10.47
2018-04-25T23:25:14.173Z,11.00
2018-04-25T23:27:42.007Z,11.03
2018-04-25T23:30:09.668Z,10.87
2018-04-25T23:32:37.521Z,10.37
2018-04-25T23:35:05.165Z,10.73
2018-04-25T23:37:32.807Z,10.27
2018-04-25T23:40:01.265Z,22.30
2018-04-25T23:42:28.957Z,17.63
2018-04-25T23:44:56.761Z,26.33
2018-04-25T23:47:24.716Z,13.23
2018-04-25T23:49:52.361Z,12.40
2018-04-25T23:52:20.000Z,12.60
2018-04-25T23:54:48.454Z,12.60
2018-04-25T23:57:16.296Z,12.87
2018-04-25T23:59:44.298Z,13.00
